Time;durP1;ratioP1;P1;durP2;ratioP2;P2;SDS_P1;SDS_P2;PMS_P1;PMS_P2;Temp;Humidity;BMP_temperature;BMP_pressure;BME280_temperature;BME280_humidity;BME280_pressure;Samples;Min_cycle;Max_cycle;Signal;HPM_P1;HPM_P2
2022/01/03 00:00:12;;;;;;;10.90;0.60;;;7.60;99.90;;;;;;5017035;28;20431;-79
2022/01/03 00:02:40;;;;;;;4.53;0.63;;;7.60;99.90;;;;;;5033221;28;20061;-85
2022/01/03 00:05:06;;;;;;;4.80;1.10;;;7.70;99.90;;;;;;5033191;28;20377;-79
2022/01/03 00:07:43;;;;;;;8.73;1.15;;;7.70;99.90;;;;;;5016744;28;20561;-79
2022/01/03 00:10:10;;;;;;;4.20;0.45;;;7.80;99.90;;;;;;5016768;28;20557;-85
2022/01/03 00:12:38;;;;;;;2.97;0.80;;;7.80;99.90;;;;;;5016612;28;20046;-80
2022/01/03 00:15:06;;;;;;;6.20;0.88;;;7.90;99.90;;;;;;5016926;28;20052;-81
2022/01/03 00:17:32;;;;;;;4.38;0.90;;;7.90;99.90;;;;;;5032761;28;20048;-85
2022/01/03 00:19:57;;;;;;;4.18;1.35;;;8.00;99.90;;;;;;5032809;28;20037;-79
2022/01/03 00:22:24;;;;;;;2.63;1.13;;;8.00;99.90;;;;;;5016298;28;20538;-83
2022/01/03 00:25:00;;;;;;;5.15;1.02;;;8.00;99.90;;;;;;5032751;28;20041;-79
2022/01/03 00:27:33;;;;;;;4.30;1.02;;;8.00;99.90;;;;;;5032654;28;20041;-79
2022/01/03 00:30:00;;;;;;;6.60;1.02;;;8.00;99.90;;;;;;5032086;28;20080;-79
2022/01/03 00:32:28;;;;;;;5.93;0.90;;;8.10;99.90;;;;;;5015523;28;20041;-80
2022/01/03 00:34:55;;;;;;;7.57;2.00;;;8.10;99.90;;;;;;5032557;28;20045;-79
2022/01/03 00:37:23;;;;;;;7.47;0.93;;;8.10;99.90;;;;;;5032426;28;20103;-85
2022/01/03 00:39:50;;;;;;;9.80;1.85;;;8.10;99.90;;;;;;5016558;28;20491;-86
2022/01/03 00:42:16;;;;;;;7.43;1.27;;;8.10;99.90;;;;;;5032268;28;20124;-88
2022/01/03 00:44:43;;;;;;;6.82;0.77;;;8.10;99.90;;;;;;5016153;28;20190;-86
2022/01/03 00:47:10;;;;;;;9.73;1.80;;;8.00;99.90;;;;;;5032131;28;20046;-87
2022/01/03 00:49:40;;;;;;;4.97;0.95;;;8.00;99.90;;;;;;5032592;28;20536;-80
2022/01/03 00:52:06;;;;;;;5.13;1.00;;;7.90;99.90;;;;;;5016037;28;20549;-81
2022/01/03 00:54:31;;;;;;;11.68;1.52;;;7.90;99.90;;;;;;5016024;28;20433;-79
2022/01/03 00:57:05;;;;;;;5.15;1.23;;;8.00;99.90;;;;;;5032082;28;20042;-84
2022/01/03 00:59:38;;;;;;;9.05;1.52;;;7.90;99.90;;;;;;5032446;28;20049;-79
2022/01/03 01:02:07;;;;;;;9.85;1.95;;;7.90;99.90;;;;;;5015577;28;20149;-80
2022/01/03 01:04:34;;;;;;;7.80;1.80;;;7.90;99.90;;;;;;5015527;28;20103;-79
2022/01/03 01:07:00;;;;;;;13.25;2.15;;;7.90;99.90;;;;;;5015416;28;20099;-80
2022/01/03 01:09:27;;;;;;;6.63;1.50;;;8.00;99.90;;;;;;5015495;28;20049;-86
2022/01/03 01:11:55;;;;;;;11.77;1.48;;;7.90;99.90;;;;;;5031862;28;20059;-80
2022/01/03 01:14:22;;;;;;;11.77;2.33;;;7.90;99.90;;;;;;5031851;28;20060;-80
2022/01/03 01:16:48;;;;;;;10.38;2.28;;;7.90;99.90;;;;;;4999505;28;20559;-85
2022/01/03 01:19:14;;;;;;;9.20;1.83;;;7.90;99.90;;;;;;5015487;28;20515;-85
2022/01/03 01:21:41;;;;;;;14.27;1.67;;;7.90;99.90;;;;;;5031757;28;20041;-86
2022/01/03 01:24:07;;;;;;;7.13;1.13;;;7.90;99.90;;;;;;5031689;28;20049;-86
2022/01/03 01:29:17;;;;;;;10.93;1.95;;;7.90;99.90;;;;;;5018002;28;20045;-86
2022/01/03 01:31:49;;;;;;;12.27;1.92;;;7.90;99.90;;;;;;5031772;28;20079;-80
2022/01/03 01:34:22;;;;;;;12.57;2.17;;;7.90;99.90;;;;;;5015019;28;20137;-86
2022/01/03 01:36:53;;;;;;;;;;;8.00;99.90;;;;;;5032311;28;20542;-80
2022/01/03 01:39:22;;;;;;;8.98;1.75;;;8.00;99.90;;;;;;5031434;28;19927;-86
2022/01/03 01:41:52;;;;;;;8.15;1.80;;;8.10;99.90;;;;;;5031725;28;20064;-86
2022/01/03 01:44:18;;;;;;;15.13;1.85;;;8.30;99.90;;;;;;5019889;28;20049;-87
2022/01/03 01:46:53;;;;;;;16.35;1.75;;;8.40;99.90;;;;;;5019377;28;20052;-81
2022/01/03 01:49:21;;;;;;;10.15;1.73;;;8.50;99.90;;;;;;5019190;28;20056;-82
2022/01/03 01:51:55;;;;;;;18.77;2.97;;;8.60;99.90;;;;;;5035453;28;20052;-86
2022/01/03 01:54:32;;;;;;;12.52;2.10;;;8.60;99.90;;;;;;5035757;28;20442;-86
2022/01/03 01:57:07;;;;;;;13.50;1.90;;;8.80;99.90;;;;;;5035522;28;20049;-79
2022/01/03 01:59:38;;;;;;;13.30;1.70;;;8.80;99.90;;;;;;5019109;28;20122;-79
2022/01/03 02:02:07;;;;;;;10.45;1.80;;;8.70;99.90;;;;;;5035264;28;20503;-79
2022/01/03 02:04:48;;;;;;;10.02;2.22;;;8.80;99.90;;;;;;5018929;28;20080;-86
2022/01/03 02:07:37;;;;;;;15.88;2.28;;;8.80;99.90;;;;;;5018735;28;20132;-86
2022/01/03 02:10:12;;;;;;;10.80;2.22;;;8.80;99.90;;;;;;5035011;28;20111;-85
2022/01/03 02:12:40;;;;;;;12.98;2.15;;;8.90;99.90;;;;;;5035484;28;20081;-80
2022/01/03 02:15:11;;;;;;;17.90;2.78;;;8.90;99.90;;;;;;5035056;28;20128;-80
2022/01/03 02:17:37;;;;;;;13.52;2.58;;;8.90;99.90;;;;;;5018571;28;20046;-86
2022/01/03 02:20:15;;;;;;;6.53;2.17;;;8.80;99.90;;;;;;5002316;28;20124;-80
2022/01/03 02:22:42;;;;;;;11.65;2.70;;;8.80;99.90;;;;;;5018443;28;20053;-79
2022/01/03 02:25:10;;;;;;;9.65;1.77;;;8.80;99.90;;;;;;5018466;28;20128;-80
2022/01/03 02:27:37;;;;;;;12.20;2.00;;;8.90;99.90;;;;;;5034887;28;20046;-80
2022/01/03 02:30:09;;;;;;;16.20;2.13;;;8.70;99.90;;;;;;5018345;28;20140;-86
2022/01/03 02:32:35;;;;;;;8.90;1.50;;;8.80;99.90;;;;;;5018879;28;20480;-86
2022/01/03 02:35:01;;;;;;;7.43;2.03;;;8.70;99.90;;;;;;5018300;28;20058;-86
2022/01/03 02:37:27;;;;;;;10.10;1.50;;;8.80;99.90;;;;;;5018470;28;20119;-86
2022/01/03 02:39:54;;;;;;;9.20;2.42;;;8.80;99.90;;;;;;5034648;28;20045;-80
2022/01/03 02:42:26;;;;;;;19.17;2.78;;;8.70;99.90;;;;;;5034575;28;20045;-80
2022/01/03 02:45:06;;;;;;;18.85;2.30;;;8.60;99.90;;;;;;5019148;28;20107;-81
2022/01/03 02:47:32;;;;;;;7.65;1.67;;;8.60;99.90;;;;;;5018055;28;20075;-80
2022/01/03 02:49:58;;;;;;;18.63;3.05;;;8.60;99.90;;;;;;5034732;28;20041;-81
2022/01/03 02:52:23;;;;;;;15.68;2.08;;;8.80;99.90;;;;;;5001595;28;20080;-86
2022/01/03 02:54:50;;;;;;;20.15;2.90;;;8.80;99.90;;;;;;5017180;28;20076;-84
2022/01/03 02:57:22;;;;;;;8.93;2.10;;;8.60;99.90;;;;;;5018214;28;20696;-81
2022/01/03 02:59:55;;;;;;;12.10;2.13;;;8.60;99.90;;;;;;5002735;28;20302;-86
2022/01/03 03:02:22;;;;;;;25.77;3.53;;;8.70;99.90;;;;;;5017687;28;20054;-85
2022/01/03 03:04:57;;;;;;;22.40;2.92;;;8.60;99.90;;;;;;5034071;28;20041;-80
2022/01/03 03:07:25;;;;;;;17.88;3.53;;;8.60;99.90;;;;;;5034080;28;20045;-85
2022/01/03 03:09:51;;;;;;;18.17;2.38;;;8.60;99.90;;;;;;5034201;28;20053;-86
2022/01/03 03:12:18;;;;;;;25.30;3.65;;;8.40;99.90;;;;;;5017788;28;20045;-83
2022/01/03 03:14:44;;;;;;;17.20;3.50;;;8.40;99.90;;;;;;5017823;28;20106;-85
2022/01/03 03:17:10;;;;;;;11.50;2.03;;;8.40;99.90;;;;;;5034276;28;20041;-82
2022/01/03 03:20:01;;;;;;;8.18;2.10;;;8.40;99.90;;;;;;5001188;28;20044;-80
2022/01/03 03:22:28;;;;;;;19.70;3.20;;;8.40;99.90;;;;;;5034424;28;20045;-80
2022/01/03 03:25:09;;;;;;;14.82;2.55;;;8.40;99.90;;;;;;5033888;28;20045;-81
2022/01/03 03:27:43;;;;;;;14.40;3.97;;;8.50;99.90;;;;;;5017402;28;20046;-85
2022/01/03 03:30:09;;;;;;;;;;;8.40;99.90;;;;;;5034138;28;20042;-80
2022/01/03 03:32:35;;;;;;;12.95;1.73;;;8.40;99.90;;;;;;5017235;28;19921;-80
2022/01/03 03:35:01;;;;;;;13.48;2.72;;;8.40;99.90;;;;;;5017138;28;20076;-81
2022/01/03 03:37:26;;;;;;;12.90;2.85;;;8.30;99.90;;;;;;5033542;28;20052;-85
2022/01/03 03:39:52;;;;;;;15.52;2.65;;;8.30;99.90;;;;;;5033343;28;20496;-85
2022/01/03 03:42:19;;;;;;;13.10;3.17;;;8.30;99.90;;;;;;5017305;28;20091;-81
2022/01/03 03:44:45;;;;;;;13.05;2.35;;;8.30;99.90;;;;;;5000823;28;20038;-81
2022/01/03 03:47:11;;;;;;;14.88;3.58;;;8.30;99.90;;;;;;5016929;28;20045;-86
2022/01/03 03:49:37;;;;;;;20.95;3.60;;;8.30;99.90;;;;;;5000813;28;20068;-84
2022/01/03 03:52:04;;;;;;;20.33;3.30;;;8.40;99.90;;;;;;5016878;28;20049;-81
2022/01/03 03:54:32;;;;;;;11.90;2.90;;;8.30;99.90;;;;;;5016986;28;20042;-81
2022/01/03 03:56:58;;;;;;;20.83;2.47;;;8.30;99.90;;;;;;5000369;28;20088;-81
2022/01/03 03:59:25;;;;;;;17.58;3.00;;;8.20;99.90;;;;;;5033288;28;20049;-86
2022/01/03 04:01:52;;;;;;;20.17;3.60;;;8.20;99.90;;;;;;5016733;28;20538;-81
2022/01/03 04:04:18;;;;;;;31.27;3.67;;;8.50;99.90;;;;;;5000428;28;20053;-80
2022/01/03 04:06:44;;;;;;;23.40;2.42;;;8.30;99.90;;;;;;5000022;28;20073;-85
2022/01/03 04:09:09;;;;;;;10.35;2.47;;;8.20;99.90;;;;;;5016398;28;20049;-81
2022/01/03 04:11:35;;;;;;;13.75;2.15;;;8.30;99.90;;;;;;5016593;28;20042;-82
2022/01/03 04:14:01;;;;;;;15.02;3.05;;;8.40;99.90;;;;;;4999875;28;20451;-85
2022/01/03 04:16:27;;;;;;;14.32;2.20;;;8.30;99.90;;;;;;5032855;28;20566;-84
2022/01/03 04:18:53;;;;;;;25.92;4.28;;;8.30;99.90;;;;;;5033009;28;20056;-84
2022/01/03 04:21:19;;;;;;;19.23;2.70;;;8.40;99.90;;;;;;5016315;28;20037;-85
2022/01/03 04:23:44;;;;;;;19.75;3.30;;;8.40;99.90;;;;;;5032926;28;20476;-81
2022/01/03 04:26:11;;;;;;;17.63;3.80;;;8.30;99.90;;;;;;5016340;28;20091;-84
2022/01/03 04:28:38;;;;;;;24.75;3.47;;;8.30;99.90;;;;;;5016390;28;20061;-85
2022/01/03 04:31:04;;;;;;;45.90;5.60;;;8.30;99.90;;;;;;5016584;28;20481;-81
2022/01/03 04:33:29;;;;;;;17.35;2.50;;;8.30;99.90;;;;;;4999678;28;20081;-82
2022/01/03 04:35:55;;;;;;;25.38;4.35;;;8.20;99.90;;;;;;5016232;28;20088;-82
2022/01/03 04:38:21;;;;;;;16.38;3.38;;;8.50;99.90;;;;;;5032437;28;20057;-85
2022/01/03 04:40:47;;;;;;;29.42;4.10;;;8.20;99.90;;;;;;5016115;28;20507;-82
2022/01/03 04:43:12;;;;;;;18.33;2.95;;;8.20;99.90;;;;;;5032474;28;20037;-86
2022/01/03 04:45:38;;;;;;;19.63;3.25;;;8.10;99.90;;;;;;5016000;28;20054;-81
2022/01/03 04:48:04;;;;;;;19.60;4.10;;;8.20;99.90;;;;;;5015827;28;20047;-85
2022/01/03 04:50:30;;;;;;;15.00;2.58;;;8.10;99.90;;;;;;5032184;28;20041;-86
2022/01/03 04:52:56;;;;;;;12.90;2.47;;;8.20;99.90;;;;;;5015734;28;20053;-86
2022/01/03 04:55:22;;;;;;;13.23;2.58;;;8.20;99.90;;;;;;5015975;28;20064;-80
2022/01/03 04:57:47;;;;;;;21.48;4.60;;;8.20;99.90;;;;;;5032096;28;20042;-81
2022/01/03 05:00:14;;;;;;;14.00;2.00;;;8.20;99.90;;;;;;5015598;28;20053;-81
2022/01/03 05:02:39;;;;;;;26.02;4.32;;;8.10;99.90;;;;;;5015471;28;20053;-85
2022/01/03 05:05:06;;;;;;;12.45;2.58;;;8.20;99.90;;;;;;5015433;28;20098;-81
2022/01/03 05:07:32;;;;;;;27.83;3.22;;;8.20;99.90;;;;;;4999490;28;20506;-81
2022/01/03 05:09:57;;;;;;;20.67;3.20;;;8.30;99.90;;;;;;5015818;28;20033;-81
2022/01/03 05:12:23;;;;;;;17.73;4.35;;;8.20;99.90;;;;;;5015530;28;20033;-84
2022/01/03 05:14:49;;;;;;;13.60;2.85;;;8.20;99.90;;;;;;4998856;28;20459;-81
2022/01/03 05:17:15;;;;;;;12.80;2.83;;;8.10;99.90;;;;;;4998817;28;20041;-85
2022/01/03 05:19:40;;;;;;;19.42;3.72;;;8.20;99.90;;;;;;4999309;28;20049;-81
2022/01/03 05:22:06;;;;;;;17.38;3.42;;;8.10;99.90;;;;;;5015615;28;20099;-84
2022/01/03 05:24:34;;;;;;;26.98;2.95;;;8.10;99.90;;;;;;5015347;28;20072;-81
2022/01/03 05:27:01;;;;;;;12.52;2.95;;;8.10;99.90;;;;;;5015499;28;20076;-86
2022/01/03 05:29:28;;;;;;;20.58;3.10;;;8.20;99.90;;;;;;5015226;28;20056;-81
2022/01/03 05:31:54;;;;;;;18.90;3.15;;;8.30;99.90;;;;;;5015533;28;20140;-81
2022/01/03 05:34:21;;;;;;;25.23;4.20;;;8.20;99.90;;;;;;5031682;28;20451;-84
2022/01/03 05:36:47;;;;;;;16.58;3.10;;;8.20;99.90;;;;;;5031568;28;20041;-81
2022/01/03 05:39:14;;;;;;;21.75;3.33;;;8.40;99.90;;;;;;5015119;28;20458;-85
2022/01/03 05:41:41;;;;;;;22.83;3.35;;;8.30;99.90;;;;;;5015351;28;20404;-81
2022/01/03 05:44:07;;;;;;;17.25;2.35;;;8.20;99.90;;;;;;4998766;28;20064;-85
2022/01/03 05:46:34;;;;;;;12.60;3.47;;;8.20;99.90;;;;;;5015016;28;20047;-81
2022/01/03 05:49:00;;;;;;;15.25;2.78;;;8.20;99.90;;;;;;5014971;28;20045;-81
2022/01/03 05:51:26;;;;;;;14.75;3.60;;;8.30;99.90;;;;;;5014958;28;20037;-84
2022/01/03 05:53:55;;;;;;;11.88;2.83;;;8.40;99.90;;;;;;5014927;28;20042;-84
2022/01/03 05:56:21;;;;;;;22.00;2.85;;;8.30;99.90;;;;;;5031426;28;20179;-81
2022/01/03 05:58:47;;;;;;;23.35;3.63;;;8.40;99.90;;;;;;4998756;28;20041;-84
2022/01/03 06:01:13;;;;;;;13.20;2.33;;;8.40;99.90;;;;;;5014727;28;20048;-85
2022/01/03 06:03:40;;;;;;;12.88;2.40;;;8.40;99.90;;;;;;5031314;28;20045;-85
2022/01/03 06:08:36;;;;;;;13.65;3.33;;;8.30;99.90;;;;;;5031474;28;20399;-85
2022/01/03 06:11:03;;;;;;;20.00;4.10;;;8.20;99.90;;;;;;4998730;28;20439;-81
2022/01/03 06:13:29;;;;;;;20.13;3.92;;;8.50;99.90;;;;;;5031169;28;20049;-81
2022/01/03 06:15:56;;;;;;;22.27;3.90;;;8.30;99.90;;;;;;5014846;28;20397;-81
2022/01/03 06:18:22;;;;;;;24.88;3.70;;;8.20;99.90;;;;;;5015034;28;20400;-85
2022/01/03 06:20:49;;;;;;;15.70;3.15;;;8.30;99.90;;;;;;5031065;28;20061;-84
2022/01/03 06:23:17;;;;;;;15.43;3.45;;;8.30;99.90;;;;;;5031062;28;20037;-81
2022/01/03 06:25:44;;;;;;;35.60;3.70;;;8.20;99.90;;;;;;5014440;28;20072;-81
2022/01/03 06:28:10;;;;;;;15.77;3.55;;;8.20;99.90;;;;;;5032265;28;20433;-81
2022/01/03 06:30:41;;;;;;;18.83;3.47;;;8.30;99.90;;;;;;5034909;28;20045;-83
2022/01/03 06:33:08;;;;;;;19.58;3.78;;;8.30;99.90;;;;;;5035007;28;20384;-85
2022/01/03 06:35:35;;;;;;;11.68;2.20;;;8.30;99.90;;;;;;5018277;28;20056;-82
2022/01/03 06:38:02;;;;;;;14.02;2.83;;;8.20;99.90;;;;;;5018047;28;20041;-81
2022/01/03 06:40:27;;;;;;;24.90;3.75;;;8.20;99.90;;;;;;5018402;28;20488;-81
2022/01/03 06:42:54;;;;;;;14.85;3.53;;;8.10;99.90;;;;;;5034542;28;20029;-82
2022/01/03 06:45:20;;;;;;;21.40;3.67;;;8.20;99.90;;;;;;5018237;28;20069;-85
2022/01/03 06:47:47;;;;;;;21.85;2.88;;;8.20;99.90;;;;;;5034538;28;20087;-82
2022/01/03 06:50:13;;;;;;;21.80;2.47;;;8.30;99.90;;;;;;5017950;28;20073;-82
2022/01/03 06:52:38;;;;;;;19.30;3.28;;;8.30;99.90;;;;;;5001864;28;20092;-85
2022/01/03 06:55:05;;;;;;;12.30;2.35;;;8.20;99.90;;;;;;5018208;28;20140;-82
2022/01/03 06:57:32;;;;;;;17.20;3.78;;;8.20;99.90;;;;;;5017985;28;20399;-84
2022/01/03 06:59:58;;;;;;;11.85;3.08;;;8.30;99.90;;;;;;5034363;28;20045;-81
2022/01/03 07:02:23;;;;;;;14.20;2.38;;;8.30;99.90;;;;;;5017600;28;20520;-85
2022/01/03 07:04:49;;;;;;;24.63;2.85;;;8.40;99.90;;;;;;5034384;28;20049;-84
2022/01/03 07:07:15;;;;;;;22.08;4.05;;;8.20;99.90;;;;;;5034051;28;20045;-82
2022/01/03 07:09:41;;;;;;;25.85;3.22;;;8.20;99.90;;;;;;5001472;28;20053;-84
2022/01/03 07:12:08;;;;;;;21.85;3.08;;;8.10;99.90;;;;;;5017887;28;20080;-81
2022/01/03 07:20:09;;;;;;;19.30;3.17;;;8.20;99.90;;;;;;5033969;28;20080;-84
2022/01/03 07:22:39;;;;;;;18.23;2.45;;;8.20;99.90;;;;;;5034443;28;20483;-84
2022/01/03 07:25:06;;;;;;;24.05;3.80;;;8.20;99.90;;;;;;5017819;28;20061;-85
2022/01/03 07:27:32;;;;;;;11.43;2.05;;;8.10;99.90;;;;;;5017214;28;20508;-81
2022/01/03 07:29:57;;;;;;;28.83;4.47;;;8.20;99.90;;;;;;5017290;28;20045;-84
2022/01/03 07:32:23;;;;;;;24.08;3.33;;;8.20;99.90;;;;;;5033722;28;20041;-84
2022/01/03 07:34:49;;;;;;;15.35;3.03;;;8.20;99.90;;;;;;5017199;28;20041;-81
2022/01/03 07:37:15;;;;;;;18.67;2.70;;;8.20;99.90;;;;;;5017422;28;20041;-82
2022/01/03 07:39:40;;;;;;;17.13;2.83;;;8.30;99.90;;;;;;5000473;28;20125;-81
2022/01/03 07:42:06;;;;;;;13.50;2.85;;;8.10;99.90;;;;;;5017018;28;20508;-81
2022/01/03 07:44:32;;;;;;;18.42;3.88;;;8.20;99.90;;;;;;5017359;28;20053;-81
2022/01/03 07:46:58;;;;;;;21.88;3.53;;;8.10;99.90;;;;;;5016796;28;20049;-86
2022/01/03 07:49:24;;;;;;;11.88;3.78;;;8.10;99.90;;;;;;5017190;28;20073;-82
2022/01/03 07:51:50;;;;;;;20.77;4.13;;;8.30;99.90;;;;;;5016723;28;20038;-82
2022/01/03 07:54:16;;;;;;;23.33;3.85;;;8.50;99.90;;;;;;5016837;28;20052;-83
2022/01/03 07:56:41;;;;;;;12.43;2.42;;;8.30;99.90;;;;;;5016554;28;20041;-82
2022/01/03 07:59:07;;;;;;;13.05;2.53;;;8.30;99.90;;;;;;5000368;28;20068;-86
2022/01/03 08:01:33;;;;;;;26.63;2.78;;;8.40;99.90;;;;;;5000167;28;20119;-81
2022/01/03 08:03:59;;;;;;;29.15;4.47;;;8.50;99.90;;;;;;5016434;28;20049;-81
2022/01/03 08:06:25;;;;;;;14.35;2.30;;;8.40;99.90;;;;;;5016423;28;20385;-82
2022/01/03 08:08:50;;;;;;;19.42;2.85;;;8.50;99.90;;;;;;5016243;28;20451;-84
2022/01/03 08:11:16;;;;;;;22.17;3.72;;;8.50;99.90;;;;;;5032844;28;20053;-84
2022/01/03 08:13:42;;;;;;;25.77;3.60;;;8.50;99.90;;;;;;5000121;28;20484;-82
2022/01/03 08:16:08;;;;;;;15.88;4.20;;;8.50;99.90;;;;;;5000353;28;20102;-85
2022/01/03 08:18:34;;;;;;;11.50;2.05;;;8.50;99.90;;;;;;5032835;28;20419;-81
2022/01/03 08:21:00;;;;;;;24.80;4.30;;;8.60;99.90;;;;;;5032469;28;20041;-83
2022/01/03 08:23:26;;;;;;;34.33;5.13;;;8.50;99.90;;;;;;5016129;28;20112;-85
2022/01/03 08:25:51;;;;;;;18.10;3.15;;;8.60;99.90;;;;;;5015896;28;20053;-83
2022/01/03 08:28:17;;;;;;;17.77;3.97;;;8.50;99.90;;;;;;5015994;28;20120;-82
2022/01/03 08:30:43;;;;;;;12.05;2.65;;;8.60;99.90;;;;;;4999745;28;20048;-82
2022/01/03 08:33:09;;;;;;;21.42;3.85;;;8.60;99.90;;;;;;5000141;28;20435;-84
2022/01/03 08:35:35;;;;;;;19.85;3.92;;;8.70;99.90;;;;;;5016241;28;20103;-85
2022/01/03 08:38:04;;;;;;;19.73;3.45;;;8.70;99.90;;;;;;5032628;28;20046;-85
2022/01/03 08:40:31;;;;;;;16.08;3.25;;;8.70;99.90;;;;;;5032470;28;20080;-85
2022/01/03 08:42:57;;;;;;;21.77;3.08;;;8.80;99.90;;;;;;5016188;28;20571;-81
2022/01/03 08:45:23;;;;;;;11.73;1.77;;;8.80;99.90;;;;;;5015658;28;20124;-85
2022/01/03 08:47:49;;;;;;;19.85;3.78;;;8.90;99.90;;;;;;5015821;28;20124;-86
2022/01/03 08:50:17;;;;;;;15.43;3.08;;;8.80;99.90;;;;;;4999504;28;20103;-82
2022/01/03 08:52:44;;;;;;;15.20;2.47;;;9.00;99.90;;;;;;5014905;28;20400;-83
2022/01/03 08:55:10;;;;;;;20.88;4.00;;;9.00;99.90;;;;;;5015548;28;20104;-85
2022/01/03 08:57:38;;;;;;;18.52;3.80;;;9.20;99.90;;;;;;5015483;28;20041;-84
2022/01/03 09:00:05;;;;;;;15.43;3.22;;;8.90;99.90;;;;;;5032043;28;20115;-82
2022/01/03 09:02:30;;;;;;;15.77;3.58;;;9.00;99.90;;;;;;4999009;28;20492;-84
2022/01/03 09:04:56;;;;;;;10.98;2.40;;;9.00;99.90;;;;;;5015579;28;20103;-86
2022/01/03 09:07:22;;;;;;;16.05;2.83;;;9.10;99.90;;;;;;4999139;28;20057;-84
2022/01/03 09:09:47;;;;;;;19.02;3.42;;;9.00;99.90;;;;;;5015263;28;20045;-82
2022/01/03 09:12:13;;;;;;;25.63;5.20;;;9.00;99.90;;;;;;5015414;28;20037;-82
2022/01/03 09:14:39;;;;;;;13.00;2.97;;;9.00;99.90;;;;;;5015240;28;20037;-82
2022/01/03 09:17:05;;;;;;;15.40;2.25;;;9.00;99.90;;;;;;4999249;28;20099;-82
2022/01/03 09:19:31;;;;;;;20.55;4.20;;;9.00;99.90;;;;;;5031787;28;20037;-84
2022/01/03 09:22:15;;;;;;;16.88;3.20;;;9.10;99.90;;;;;;5031679;28;20042;-85
2022/01/03 09:30:10;;;;;;;30.15;4.55;;;8.90;99.90;;;;;;5031456;28;20068;-86
2022/01/03 09:32:36;;;;;;;23.50;3.88;;;8.90;99.90;;;;;;5015384;28;20169;-84
2022/01/03 09:35:02;;;;;;;13.20;2.75;;;8.90;99.90;;;;;;5015428;28;20142;-86
2022/01/03 09:37:28;;;;;;;18.58;3.22;;;8.90;99.90;;;;;;5015116;28;20175;-85
2022/01/03 09:39:54;;;;;;;13.60;3.70;;;9.10;99.90;;;;;;4998670;28;20132;-85
2022/01/03 09:42:28;;;;;;;19.67;3.10;;;8.90;99.90;;;;;;5031920;28;20072;-86
2022/01/03 09:44:54;;;;;;;9.63;3.15;;;8.90;99.90;;;;;;5015477;28;20369;-85
2022/01/03 09:47:22;;;;;;;21.88;3.22;;;8.90;99.90;;;;;;5031436;28;20049;-82
2022/01/03 09:49:48;;;;;;;11.48;1.92;;;9.00;99.90;;;;;;5031525;28;20037;-82
2022/01/03 09:52:16;;;;;;;22.48;3.95;;;9.00;99.90;;;;;;5031326;28;20055;-84
2022/01/03 09:54:44;;;;;;;13.43;2.45;;;9.00;99.90;;;;;;5031451;28;20132;-85
2022/01/03 09:57:11;;;;;;;15.38;2.78;;;9.10;99.90;;;;;;5015328;28;20045;-85
2022/01/03 09:59:37;;;;;;;28.02;4.68;;;9.00;99.90;;;;;;5015192;28;20480;-85
2022/01/03 10:02:06;;;;;;;10.23;2.97;;;9.10;99.90;;;;;;5014747;28;20042;-85
2022/01/03 10:04:33;;;;;;;7.22;1.80;;;9.10;99.90;;;;;;5017814;28;20050;-85
2022/01/03 10:06:59;;;;;;;24.73;2.22;;;9.10;99.90;;;;;;5035182;28;20049;-85
2022/01/03 10:09:26;;;;;;;12.48;3.03;;;9.30;99.90;;;;;;5035143;28;20129;-86
2022/01/03 10:11:52;;;;;;;14.77;3.03;;;9.20;99.90;;;;;;5019047;28;20392;-82
2022/01/03 10:14:18;;;;;;;28.27;3.75;;;9.20;99.90;;;;;;5035044;28;20049;-84
2022/01/03 10:16:46;;;;;;;17.52;3.85;;;9.50;99.90;;;;;;5018632;28;20042;-82
2022/01/03 10:19:12;;;;;;;16.83;2.67;;;9.30;99.90;;;;;;5035335;28;20476;-82
2022/01/03 10:21:45;;;;;;;14.48;3.00;;;9.50;99.90;;;;;;5018481;28;20037;-85
2022/01/03 10:24:13;;;;;;;19.02;4.70;;;9.30;99.90;;;;;;5018477;28;20041;-85
2022/01/03 10:26:42;;;;;;;12.98;2.88;;;9.30;99.90;;;;;;5034820;28;20096;-82
2022/01/03 10:29:14;;;;;;;26.38;3.88;;;9.40;99.90;;;;;;5035067;28;20488;-85
2022/01/03 10:31:42;;;;;;;9.98;2.72;;;9.40;99.90;;;;;;5035082;28;20122;-85
2022/01/03 10:34:13;;;;;;;13.13;3.95;;;9.70;99.90;;;;;;5018313;28;20041;-85
2022/01/03 10:36:42;;;;;;;13.02;2.67;;;9.40;99.90;;;;;;5034586;28;20046;-82
2022/01/03 10:39:18;;;;;;;20.88;2.60;;;9.50;99.90;;;;;;5002552;28;20042;-85
2022/01/03 10:41:46;;;;;;;11.82;2.30;;;9.60;99.90;;;;;;5034573;28;20132;-82
2022/01/03 10:44:33;;;;;;;11.55;2.08;;;9.60;99.90;;;;;;5018303;28;20060;-82
2022/01/03 10:47:01;;;;;;;15.05;2.30;;;9.60;99.90;;;;;;5017976;28;20049;-85
2022/01/03 10:49:27;;;;;;;20.52;3.92;;;9.60;99.90;;;;;;5034696;28;20041;-85
2022/01/03 10:52:14;;;;;;;12.60;2.70;;;9.60;99.90;;;;;;5018117;28;20049;-86
2022/01/03 10:54:40;;;;;;;23.63;3.38;;;9.60;99.90;;;;;;5034433;28;20046;-85
2022/01/03 10:57:06;;;;;;;24.63;3.78;;;9.60;99.90;;;;;;5034245;28;20080;-86
2022/01/03 10:59:34;;;;;;;11.05;2.30;;;9.60;99.90;;;;;;5034082;28;20064;-82
2022/01/03 11:02:01;;;;;;;11.68;3.20;;;9.70;99.90;;;;;;5001719;28;20061;-84
2022/01/03 11:04:59;;;;;;;21.48;3.05;;;9.70;99.90;;;;;;5034404;28;20045;-85
2022/01/03 11:13:13;;;;;;;13.80;2.83;;;9.80;99.90;;;;;;5033992;28;20088;-84
2022/01/03 11:15:51;;;;;;;15.45;2.05;;;9.80;99.90;;;;;;5016950;28;20500;-85
2022/01/03 11:18:28;;;;;;;19.98;3.30;;;9.70;99.90;;;;;;5017534;28;20041;-82
2022/01/03 11:21:16;;;;;;;10.88;2.08;;;9.70;99.90;;;;;;5034195;28;20054;-83
2022/01/03 11:24:02;;;;;;;12.77;2.08;;;9.70;99.90;;;;;;5018015;28;20140;-82
2022/01/03 11:26:41;;;;;;;14.45;3.22;;;9.70;99.90;;;;;;5033833;28;20077;-82
2022/01/03 11:29:07;;;;;;;18.92;3.38;;;9.70;99.90;;;;;;5002871;28;20049;-85
2022/01/03 11:31:38;;;;;;;17.45;3.28;;;9.80;99.90;;;;;;5017307;28;20049;-82
2022/01/03 11:34:04;;;;;;;11.73;2.30;;;9.80;99.90;;;;;;5001769;28;20463;-86
2022/01/03 11:36:31;;;;;;;17.25;2.67;;;9.80;99.90;;;;;;5033658;28;20049;-82
2022/01/03 11:39:04;;;;;;;20.73;2.65;;;9.80;99.90;;;;;;5017008;28;20049;-83
2022/01/03 11:41:29;;;;;;;14.25;2.58;;;9.90;99.90;;;;;;5017339;28;20064;-86
2022/01/03 11:43:56;;;;;;;12.32;1.67;;;10.10;99.90;;;;;;5033408;28;20045;-85
2022/01/03 11:46:23;;;;;;;14.32;3.30;;;9.90;99.90;;;;;;5033343;28;20140;-85
2022/01/03 11:48:51;;;;;;;16.48;2.70;;;9.90;99.90;;;;;;5033111;28;20045;-82
2022/01/03 11:51:17;;;;;;;19.98;4.18;;;9.90;99.90;;;;;;5000491;28;20041;-86
2022/01/03 11:53:46;;;;;;;23.10;2.97;;;10.00;99.90;;;;;;5016859;28;20132;-83
2022/01/03 11:56:18;;;;;;;14.73;2.55;;;10.00;99.90;;;;;;5016745;28;20067;-82
2022/01/03 12:04:16;;;;;;;19.02;2.72;;;10.00;99.90;;;;;;5033245;28;20056;-82
2022/01/03 12:06:44;;;;;;;18.50;2.90;;;10.00;99.90;;;;;;5016678;28;20444;-82
2022/01/03 12:09:16;;;;;;;11.30;2.70;;;10.10;99.90;;;;;;5033103;28;20045;-84
2022/01/03 12:11:52;;;;;;;11.13;2.35;;;10.00;99.90;;;;;;5032924;28;20072;-85
2022/01/03 12:14:18;;;;;;;11.95;2.28;;;9.90;99.90;;;;;;5017019;28;20041;-86
2022/01/03 12:16:50;;;;;;;11.65;2.90;;;9.90;99.90;;;;;;5016285;28;20053;-83
2022/01/03 12:19:24;;;;;;;12.45;2.08;;;10.00;99.90;;;;;;5033080;28;20071;-82
2022/01/03 12:21:50;;;;;;;17.27;2.63;;;9.90;99.90;;;;;;5032947;28;20132;-85
2022/01/03 12:24:34;;;;;;;18.92;1.98;;;9.70;99.90;;;;;;5032811;28;20085;-82
2022/01/03 12:27:12;;;;;;;14.70;2.78;;;9.70;99.90;;;;;;5016067;28;20527;-81
2022/01/03 12:29:56;;;;;;;11.85;2.70;;;9.80;99.90;;;;;;5016224;28;20049;-82
2022/01/03 12:32:36;;;;;;;14.43;2.88;;;9.90;99.90;;;;;;5016067;28;20108;-82
2022/01/03 12:35:12;;;;;;;9.63;2.30;;;9.90;99.90;;;;;;5017686;28;20109;-84
2022/01/03 12:38:06;;;;;;;10.38;1.80;;;10.00;99.90;;;;;;5032431;28;20072;-86
2022/01/03 12:40:51;;;;;;;13.27;2.72;;;10.00;99.90;;;;;;5032401;28;20581;-85
2022/01/03 12:43:19;;;;;;;20.25;2.95;;;10.10;99.90;;;;;;5015772;28;20080;-81
2022/01/03 12:45:46;;;;;;;10.07;2.40;;;10.10;99.90;;;;;;5032036;28;20045;-83
2022/01/03 12:48:14;;;;;;;19.73;3.08;;;10.10;99.90;;;;;;5015591;28;20132;-86
2022/01/03 12:50:52;;;;;;;20.38;2.45;;;10.00;99.90;;;;;;5032220;28;20515;-85
2022/01/03 12:53:27;;;;;;;16.58;2.97;;;10.00;99.90;;;;;;5015647;28;20046;-82
2022/01/03 12:56:00;;;;;;;17.00;3.20;;;10.10;99.90;;;;;;5032294;28;20054;-82
2022/01/03 12:58:25;;;;;;;17.05;3.28;;;10.00;99.90;;;;;;5031903;28;20048;-83
2022/01/03 13:00:58;;;;;;;14.75;2.35;;;10.00;99.90;;;;;;5015860;28;20041;-82
2022/01/03 13:03:37;;;;;;;15.90;3.03;;;10.00;99.90;;;;;;5031648;28;20080;-86
2022/01/03 13:06:05;;;;;;;11.82;1.67;;;10.00;99.90;;;;;;5015240;28;20053;-82
2022/01/03 13:08:32;;;;;;;17.58;3.50;;;10.10;99.90;;;;;;5031957;28;20512;-82
2022/01/03 13:11:02;;;;;;;13.48;2.88;;;10.10;99.90;;;;;;4999353;28;20041;-85
2022/01/03 13:13:28;;;;;;;20.00;2.58;;;10.10;99.90;;;;;;5015956;28;20045;-83
2022/01/03 13:15:55;;;;;;;16.48;3.28;;;10.00;99.90;;;;;;5015403;28;20045;-85
2022/01/03 13:18:21;;;;;;;19.95;2.78;;;10.00;99.90;;;;;;5031704;28;20053;-86
2022/01/03 13:20:57;;;;;;;15.27;3.25;;;9.90;99.90;;;;;;5015083;28;20132;-85